TAF LFRC
METAR LFRC
LFRC 080300Z AUTO 25017KT 9999 FEW027 BKN038 BKN052 05/02 Q0991=
LFRC 080230Z AUTO 22017KT 9999 ///TCU 05/03 Q0991=
LFRC 080200Z AUTO 23019G31KT 9999 ///TCU 05/02 Q0990=
LFRC 080130Z AUTO 24017KT 9999 SCT030/// BKN100/// OVC190/// ///TCU 06/02 Q0991=
LFRC 080100Z AUTO 24014G25KT 9999 BKN031 BKN039 BKN086 06/03 Q0990=
WC LFRC
WS LFRC
WV LFRC